Time;durP1;ratioP1;P1;durP2;ratioP2;P2;SDS_P1;SDS_P2;PMS_P1;PMS_P2;Temp;Humidity;BMP_temperature;BMP_pressure;BME280_temperature;BME280_humidity;BME280_pressure;Samples;Min_cycle;Max_cycle;Signal;HPM_P1;HPM_P2
2021/04/01 00:00:15;;;;;;;4.07;3.00;;;9.50;99.90;;;;;;5079728;28;20965;-71
2021/04/01 00:02:42;;;;;;;6.53;4.43;;;9.50;99.90;;;;;;5078613;28;20696;-74
2021/04/01 00:05:09;;;;;;;5.67;3.47;;;9.50;99.90;;;;;;5079818;28;20409;-72
2021/04/01 00:07:34;;;;;;;10.90;4.23;;;9.40;99.90;;;;;;5082697;28;20414;-72
2021/04/01 00:10:01;;;;;;;4.13;3.10;;;9.40;99.90;;;;;;5083659;28;20448;-72
2021/04/01 00:12:26;;;;;;;7.30;3.10;;;9.30;99.90;;;;;;5084692;28;20266;-72
2021/04/01 00:14:52;;;;;;;7.90;3.50;;;9.40;99.90;;;;;;5084752;28;20957;-72
2021/04/01 00:17:18;;;;;;;6.13;3.60;;;9.30;99.90;;;;;;5085777;28;20565;-73
2021/04/01 00:19:43;;;;;;;4.57;3.07;;;9.30;99.90;;;;;;5083852;28;20294;-72
2021/04/01 00:22:09;;;;;;;5.57;4.27;;;9.30;99.90;;;;;;5079587;28;20536;-71
2021/04/01 00:24:34;;;;;;;5.20;3.53;;;9.20;99.90;;;;;;5082936;28;20212;-72
2021/04/01 00:27:00;;;;;;;4.87;4.37;;;9.20;99.90;;;;;;5084136;28;20200;-71
2021/04/01 00:29:26;;;;;;;4.93;3.60;;;9.20;99.90;;;;;;5084860;28;20215;-72
2021/04/01 00:31:52;;;;;;;6.30;3.07;;;9.20;99.90;;;;;;5085362;28;20679;-71
2021/04/01 00:34:18;;;;;;;7.10;3.30;;;9.10;99.90;;;;;;5081360;28;20699;-72
2021/04/01 00:36:43;;;;;;;9.27;3.00;;;9.20;99.90;;;;;;5081843;28;20456;-72
2021/04/01 00:39:09;;;;;;;5.27;3.97;;;9.10;99.90;;;;;;5086093;28;20172;-72
2021/04/01 00:41:38;;;;;;;8.87;3.87;;;9.10;99.90;;;;;;5082733;28;20170;-74
2021/04/01 00:44:04;;;;;;;5.00;3.63;;;9.10;99.90;;;;;;5081615;28;20205;-71
2021/04/01 00:46:30;;;;;;;10.40;3.87;;;9.00;99.90;;;;;;5085085;28;20470;-71
2021/04/01 00:48:55;;;;;;;4.30;2.97;;;9.00;99.90;;;;;;5082036;28;20446;-72
2021/04/01 00:51:21;;;;;;;8.70;3.63;;;9.00;99.90;;;;;;5080915;28;20602;-71
2021/04/01 00:53:46;;;;;;;6.30;4.20;;;8.90;99.90;;;;;;5078851;28;20205;-71
2021/04/01 00:56:12;;;;;;;3.30;3.07;;;8.90;99.90;;;;;;5084203;28;20292;-71
2021/04/01 00:58:38;;;;;;;6.30;3.50;;;8.90;99.90;;;;;;5082565;28;20208;-72
2021/04/01 01:03:41;;;;;;;14.80;4.10;;;8.80;99.90;;;;;;5079973;28;20202;-71
2021/04/01 01:06:07;;;;;;;8.53;3.77;;;8.80;99.90;;;;;;5082243;28;20485;-71
2021/04/01 01:08:32;;;;;;;5.87;4.13;;;8.80;99.90;;;;;;5085051;28;20188;-71
2021/04/01 01:10:58;;;;;;;4.67;3.50;;;8.70;99.90;;;;;;5083308;28;20235;-73
2021/04/01 01:13:24;;;;;;;6.53;3.03;;;8.70;99.90;;;;;;5085357;28;20680;-72
2021/04/01 01:15:49;;;;;;;6.50;3.80;;;8.70;99.90;;;;;;5086465;28;20189;-71
2021/04/01 01:18:15;;;;;;;3.50;3.20;;;8.60;99.90;;;;;;5080434;28;20683;-72
2021/04/01 01:20:40;;;;;;;5.93;3.10;;;8.60;99.90;;;;;;5081988;28;20557;-71
2021/04/01 01:23:06;;;;;;;6.90;4.00;;;8.60;99.90;;;;;;5082070;28;20663;-72
2021/04/01 01:25:32;;;;;;;10.03;3.53;;;8.60;99.90;;;;;;5084716;28;20175;-72
2021/04/01 01:27:58;;;;;;;6.63;3.13;;;8.50;99.90;;;;;;5083834;28;20501;-72
2021/04/01 01:30:24;;;;;;;5.03;3.43;;;8.60;99.90;;;;;;5083394;28;20208;-72
2021/04/01 01:32:57;;;;;;;6.60;4.33;;;8.60;99.90;;;;;;5083427;28;20519;-72
2021/04/01 01:35:34;;;;;;;6.43;3.77;;;8.50;99.90;;;;;;5082553;28;20273;-71
2021/04/01 01:38:05;;;;;;;10.30;4.50;;;8.50;99.90;;;;;;5080777;28;20570;-73
2021/04/01 01:40:31;;;;;;;9.93;4.20;;;8.40;99.90;;;;;;5083967;28;20980;-71
2021/04/01 01:42:59;;;;;;;7.90;4.50;;;8.40;99.90;;;;;;5082258;28;20466;-71
2021/04/01 01:45:25;;;;;;;9.03;4.87;;;8.40;99.90;;;;;;5080155;28;20599;-72
2021/04/01 01:47:51;;;;;;;8.00;5.00;;;8.30;99.90;;;;;;5088007;28;20932;-71
2021/04/01 01:50:20;;;;;;;8.57;4.20;;;8.30;99.90;;;;;;5083028;28;20424;-72
2021/04/01 01:52:45;;;;;;;9.37;4.60;;;8.30;99.90;;;;;;5083543;28;20290;-71
2021/04/01 01:55:12;;;;;;;7.77;3.70;;;8.30;99.90;;;;;;5081692;28;20872;-71
2021/04/01 01:57:38;;;;;;;4.03;3.50;;;8.20;99.90;;;;;;5084702;28;20210;-72
2021/04/01 02:00:09;;;;;;;11.57;4.13;;;8.20;99.90;;;;;;5080814;28;20454;-71
2021/04/01 02:02:34;;;;;;;3.80;3.50;;;8.20;99.90;;;;;;5084087;28;20492;-72
2021/04/01 02:05:00;;;;;;;4.37;4.00;;;8.20;99.90;;;;;;5080713;28;20871;-72
2021/04/01 02:07:26;;;;;;;5.03;3.70;;;8.10;99.90;;;;;;5082871;28;20435;-73
2021/04/01 02:09:51;;;;;;;5.27;4.47;;;8.10;99.90;;;;;;5080806;28;20282;-73
2021/04/01 02:12:17;;;;;;;9.83;4.10;;;8.10;99.90;;;;;;5083658;28;20182;-72
2021/04/01 02:14:44;;;;;;;6.50;4.50;;;8.10;99.90;;;;;;5079703;28;20180;-71
2021/04/01 02:17:13;;;;;;;10.27;5.40;;;8.10;99.90;;;;;;5080483;28;20471;-72
2021/04/01 02:19:38;;;;;;;8.30;3.87;;;8.10;99.90;;;;;;5082134;28;20952;-72
2021/04/01 02:22:04;;;;;;;4.70;4.10;;;8.00;99.90;;;;;;5079422;28;20467;-72
2021/04/01 02:24:30;;;;;;;11.53;3.67;;;8.10;99.90;;;;;;5078957;28;20306;-73
2021/04/01 02:26:56;;;;;;;6.27;4.93;;;8.10;99.90;;;;;;5081300;28;20453;-73
2021/04/01 02:29:22;;;;;;;9.03;5.03;;;8.00;99.90;;;;;;5081191;28;20592;-72
2021/04/01 02:31:48;;;;;;;7.30;4.43;;;8.00;99.90;;;;;;5080412;28;20444;-72
2021/04/01 02:34:14;;;;;;;10.17;4.67;;;7.90;99.90;;;;;;5076597;28;20986;-72
2021/04/01 02:36:41;;;;;;;8.87;5.20;;;8.00;99.90;;;;;;5073115;28;20477;-72
2021/04/01 02:39:06;;;;;;;6.30;4.93;;;7.90;99.90;;;;;;5083867;28;20447;-72
2021/04/01 02:41:32;;;;;;;7.73;4.90;;;7.90;99.90;;;;;;5083339;28;20453;-72
2021/04/01 02:43:57;;;;;;;5.97;4.30;;;7.90;99.90;;;;;;5078050;28;20552;-74
2021/04/01 02:46:23;;;;;;;9.73;4.80;;;7.90;99.90;;;;;;5082330;28;20765;-71
2021/04/01 02:48:48;;;;;;;8.00;5.23;;;7.80;99.90;;;;;;5076818;28;20191;-72
2021/04/01 02:51:14;;;;;;;11.97;4.83;;;7.80;99.90;;;;;;5079980;28;20540;-75
2021/04/01 02:53:39;;;;;;;7.93;4.83;;;7.80;99.90;;;;;;5084019;28;20215;-72
2021/04/01 02:56:05;;;;;;;9.67;5.40;;;7.80;99.90;;;;;;5080301;28;20192;-72
2021/04/01 02:58:31;;;;;;;9.20;4.63;;;7.80;99.90;;;;;;5080726;28;20573;-72
2021/04/01 03:00:57;;;;;;;8.57;5.00;;;7.70;99.90;;;;;;5080296;28;20205;-72
2021/04/01 03:03:29;;;;;;;6.53;4.60;;;7.70;99.90;;;;;;5080127;28;20280;-72
2021/04/01 03:05:59;;;;;;;13.73;6.60;;;7.70;99.90;;;;;;5081217;28;20867;-72
2021/04/01 03:08:24;;;;;;;6.27;5.20;;;7.60;99.90;;;;;;5079751;28;20432;-72
2021/04/01 03:10:50;;;;;;;11.80;5.30;;;7.60;99.90;;;;;;5080328;28;20510;-72
2021/04/01 03:13:15;;;;;;;7.30;4.90;;;7.60;99.90;;;;;;5081502;28;20703;-72
2021/04/01 03:15:41;;;;;;;11.93;5.77;;;7.60;99.90;;;;;;5083248;28;20183;-72
2021/04/01 03:18:06;;;;;;;11.00;5.23;;;7.60;99.90;;;;;;5080443;28;20209;-72
2021/04/01 03:20:32;;;;;;;16.87;4.93;;;7.60;99.90;;;;;;5081318;28;20215;-72
2021/04/01 03:22:58;;;;;;;11.57;5.40;;;7.60;99.90;;;;;;5080748;28;20626;-73
2021/04/01 03:25:23;;;;;;;12.23;5.63;;;7.50;99.90;;;;;;5079905;28;20192;-72
2021/04/01 03:27:49;;;;;;;8.20;5.50;;;7.60;99.90;;;;;;5080412;28;20699;-72
2021/04/01 03:30:15;;;;;;;9.80;4.97;;;7.60;99.90;;;;;;5079641;28;20187;-72
2021/04/01 03:32:43;;;;;;;9.90;5.83;;;7.60;99.90;;;;;;5079559;28;20213;-72
2021/04/01 03:35:12;;;;;;;13.70;5.63;;;7.60;99.90;;;;;;5079852;28;20439;-72
2021/04/01 03:37:38;;;;;;;6.97;4.80;;;7.50;99.90;;;;;;5079524;28;20498;-72
2021/04/01 03:40:06;;;;;;;9.17;6.37;;;7.50;99.90;;;;;;5082892;28;20437;-73
2021/04/01 03:42:32;;;;;;;10.27;5.20;;;7.50;99.90;;;;;;5080592;28;20514;-73
2021/04/01 03:44:57;;;;;;;13.23;6.43;;;7.50;99.90;;;;;;5080231;28;20437;-73
2021/04/01 03:47:23;;;;;;;8.20;5.70;;;7.50;99.90;;;;;;5081669;28;20423;-72
2021/04/01 03:49:49;;;;;;;6.67;6.00;;;7.40;99.90;;;;;;5079836;28;20268;-70
2021/04/01 03:52:14;;;;;;;10.43;6.43;;;7.40;99.90;;;;;;5080552;28;20180;-72
2021/04/01 03:54:42;;;;;;;7.80;5.80;;;7.40;99.90;;;;;;5079717;28;20182;-72
2021/04/01 03:57:08;;;;;;;7.67;5.23;;;7.30;99.90;;;;;;5081890;28;20554;-72
2021/04/01 03:59:54;;;;;;;10.10;5.73;;;7.40;99.90;;;;;;5079379;28;20509;-72
2021/04/01 04:02:42;;;;;;;12.47;6.67;;;7.40;99.90;;;;;;5078202;28;20205;-72
2021/04/01 04:07:57;;;;;;;11.67;6.53;;;7.30;99.90;;;;;;5084225;28;20433;-73
2021/04/01 04:13:19;;;;;;;12.07;6.07;;;7.30;99.90;;;;;;5081362;28;20463;-72
2021/04/01 04:15:45;;;;;;;18.17;6.03;;;7.30;99.90;;;;;;5079531;28;20420;-72
2021/04/01 04:18:11;;;;;;;16.10;6.33;;;7.30;99.90;;;;;;5079115;28;20481;-72
2021/04/01 04:20:37;;;;;;;8.27;6.50;;;7.30;99.90;;;;;;5078867;28;20583;-72
2021/04/01 04:23:02;;;;;;;13.23;6.53;;;7.20;99.90;;;;;;5078540;28;20213;-72
2021/04/01 04:25:28;;;;;;;13.67;5.87;;;7.20;99.90;;;;;;5080060;28;20937;-72
2021/04/01 04:30:25;;;;;;;14.53;6.90;;;7.20;99.90;;;;;;5077775;28;20187;-72
2021/04/01 04:32:50;;;;;;;11.03;6.37;;;7.20;99.90;;;;;;5079974;28;20494;-72
2021/04/01 04:35:16;;;;;;;8.90;5.83;;;7.20;99.90;;;;;;5078375;28;20972;-71
2021/04/01 04:37:42;;;;;;;10.20;6.10;;;7.20;99.90;;;;;;5082187;28;20688;-72
2021/04/01 04:40:09;;;;;;;13.40;6.47;;;7.30;99.90;;;;;;5078927;28;20177;-72
2021/04/01 04:42:35;;;;;;;9.73;5.83;;;7.30;99.90;;;;;;5081700;28;20203;-73
2021/04/01 04:45:01;;;;;;;14.43;7.57;;;7.20;99.90;;;;;;5080533;28;20447;-72
2021/04/01 04:47:27;;;;;;;11.00;5.60;;;7.20;99.90;;;;;;5081047;28;20445;-72
2021/04/01 04:49:52;;;;;;;11.13;6.33;;;7.20;99.90;;;;;;5078308;28;20437;-70
2021/04/01 04:52:20;;;;;;;11.83;5.00;;;7.20;99.90;;;;;;5080989;28;20186;-72
2021/04/01 04:54:46;;;;;;;12.60;5.77;;;7.10;99.90;;;;;;5074492;28;20201;-72
2021/04/01 04:57:23;;;;;;;14.80;6.77;;;7.10;99.90;;;;;;5062942;28;20466;-73
2021/04/01 05:05:03;;;;;;;6.87;5.20;;;7.20;99.90;;;;;;5082409;28;20680;-70
2021/04/01 05:07:28;;;;;;;10.13;5.40;;;7.30;99.90;;;;;;5082994;28;20445;-71
2021/04/01 05:09:54;;;;;;;15.20;7.07;;;7.40;99.90;;;;;;5083708;28;20451;-71
2021/04/01 05:12:19;;;;;;;12.97;6.10;;;7.40;99.90;;;;;;5083400;28;20892;-71
2021/04/01 05:14:45;;;;;;;13.40;5.47;;;7.40;99.90;;;;;;5085298;28;20179;-70
2021/04/01 05:17:14;;;;;;;11.00;5.87;;;7.50;99.90;;;;;;5084250;28;20210;-70
2021/04/01 05:19:40;;;;;;;17.07;7.40;;;7.50;99.90;;;;;;5082604;28;20438;-70
2021/04/01 05:24:38;;;;;;;11.17;6.43;;;7.60;99.90;;;;;;5085256;28;20437;-71
2021/04/01 05:27:25;;;;;;;15.90;6.43;;;7.70;99.90;;;;;;5080630;28;20879;-71
2021/04/01 05:30:01;;;;;;;7.57;5.33;;;7.70;99.90;;;;;;5082965;28;20412;-72
2021/04/01 05:32:35;;;;;;;11.57;5.67;;;7.80;99.90;;;;;;5081266;28;20492;-71
2021/04/01 05:35:04;;;;;;;11.23;5.67;;;7.90;99.90;;;;;;5076762;28;20806;-72
2021/04/01 05:37:29;;;;;;;11.50;6.13;;;7.90;99.90;;;;;;5078092;28;20463;-72
2021/04/01 05:39:55;;;;;;;16.13;5.50;;;8.10;99.90;;;;;;5077278;28;21126;-72
2021/04/01 05:42:23;;;;;;;9.63;5.30;;;8.10;99.90;;;;;;5079351;28;20242;-72
2021/04/01 05:47:54;;;;;;;13.73;6.07;;;8.30;99.90;;;;;;5039722;28;21172;-72
2021/04/01 05:53:43;;;;;;;17.83;7.07;;;8.50;99.90;;;;;;5086393;28;20459;-73
2021/04/01 05:56:38;;;;;;;12.53;6.70;;;8.60;99.90;;;;;;5086665;28;20437;-71
2021/04/01 05:59:19;;;;;;;16.97;6.60;;;8.80;99.90;;;;;;5077799;28;20478;-73
2021/04/01 06:04:25;;;;;;;16.27;5.87;;;9.20;99.90;;;;;;5077524;28;20950;-72
2021/04/01 06:06:59;;;;;;;12.60;6.60;;;9.30;99.90;;;;;;5077408;28;20432;-72
2021/04/01 06:09:27;;;;;;;11.80;6.30;;;9.40;99.90;;;;;;5080086;28;20777;-72
2021/04/01 06:11:55;;;;;;;8.60;5.80;;;9.80;99.90;;;;;;5082608;28;20482;-72
2021/04/01 06:14:32;;;;;;;17.50;7.07;;;10.70;99.90;;;;;;5082850;28;20437;-73
2021/04/01 06:17:08;;;;;;;17.30;6.00;;;12.20;99.90;;;;;;5081033;28;20459;-72
2021/04/01 06:19:36;;;;;;;9.97;5.63;;;13.70;99.90;;;;;;5080153;28;20561;-72
2021/04/01 06:22:06;;;;;;;8.63;6.13;;;15.30;99.90;;;;;;5080901;28;20420;-73
2021/04/01 06:24:34;;;;;;;17.87;6.93;;;16.70;99.90;;;;;;5083100;28;20529;-73
2021/04/01 06:27:22;;;;;;;13.30;7.00;;;17.50;99.90;;;;;;5081456;28;20438;-72
2021/04/01 06:32:37;;;;;;;11.27;7.80;;;18.50;99.90;;;;;;5077746;28;20461;-73
2021/04/01 06:35:13;;;;;;;11.47;6.40;;;18.00;99.90;;;;;;5081307;28;20538;-71
2021/04/01 06:40:08;;;;;;;13.97;6.87;;;16.50;99.90;;;;;;5079447;28;20919;-70
2021/04/01 06:42:57;;;;;;;13.50;8.03;;;16.10;99.90;;;;;;5081496;28;20465;-74
2021/04/01 06:45:24;;;;;;;9.43;6.63;;;15.70;99.90;;;;;;5081371;28;20544;-73
2021/04/01 06:47:56;;;;;;;17.60;8.03;;;15.30;99.90;;;;;;5081407;28;20442;-73
2021/04/01 06:50:33;;;;;;;11.87;7.73;;;14.90;99.90;;;;;;5084967;28;20422;-72
2021/04/01 06:53:17;;;;;;;12.70;7.97;;;14.70;99.90;;;;;;5082568;28;20888;-73
2021/04/01 06:55:57;;;;;;;14.50;7.70;;;14.80;99.90;;;;;;5081555;28;20436;-73
2021/04/01 06:58:40;;;;;;;11.47;7.57;;;16.30;99.90;;;;;;5081443;28;20560;-73
2021/04/01 07:01:22;;;;;;;13.80;8.10;;;17.50;99.90;;;;;;5083740;28;20524;-72
2021/04/01 07:03:56;;;;;;;15.57;7.80;;;18.60;99.90;;;;;;5076843;28;20876;-72
2021/04/01 07:06:26;;;;;;;15.80;7.83;;;19.00;99.90;;;;;;5080585;28;20464;-73
2021/04/01 07:09:04;;;;;;;15.77;8.17;;;18.90;99.90;;;;;;5078703;28;20819;-73
2021/04/01 07:11:41;;;;;;;15.27;8.50;;;18.90;99.90;;;;;;5078789;28;20526;-72
2021/04/01 07:14:14;;;;;;;19.13;7.50;;;19.20;99.90;;;;;;5078535;28;20439;-72
2021/04/01 07:19:34;;;;;;;12.80;8.13;;;19.40;99.90;;;;;;5078481;28;20438;-72
2021/04/01 07:44:45;;;;;;;22.60;9.17;;;20.60;99.90;;;;;;5076490;28;20469;-71
2021/04/01 07:47:36;;;;;;;14.67;7.33;;;21.60;99.90;;;;;;5081683;28;20452;-72
2021/04/01 07:50:14;;;;;;;23.60;8.13;;;21.70;99.90;;;;;;5076500;28;20440;-73
2021/04/01 07:52:41;;;;;;;10.87;7.50;;;21.40;99.90;;;;;;5082693;28;20433;-71
2021/04/01 08:00:52;;;;;;;22.53;7.80;;;20.10;99.90;;;;;;5081621;28;20874;-71
2021/04/01 08:06:27;;;;;;;22.00;8.40;;;20.80;99.90;;;;;;5078688;28;20501;-71
2021/04/01 08:09:01;;;;;;;13.17;8.40;;;20.70;99.90;;;;;;5078777;28;20429;-72
2021/04/01 08:11:53;;;;;;;13.50;8.40;;;20.80;99.90;;;;;;5077986;28;20456;-72
2021/04/01 08:14:24;;;;;;;19.23;9.13;;;20.70;99.90;;;;;;5080787;28;20499;-72
2021/04/01 08:17:01;;;;;;;15.10;7.87;;;20.50;99.90;;;;;;5080395;28;20446;-72
2021/04/01 08:19:29;;;;;;;15.17;7.23;;;20.70;99.90;;;;;;5075391;28;20425;-72
2021/04/01 08:21:57;;;;;;;16.03;7.80;;;21.00;99.90;;;;;;5078806;28;20854;-72
2021/04/01 08:24:41;;;;;;;13.27;8.43;;;21.10;99.90;;;;;;5077942;28;21005;-72
2021/04/01 08:27:49;;;;;;;17.27;7.53;;;21.30;99.90;;;;;;5079421;28;20502;-73
2021/04/01 08:35:29;;;;;;;16.43;7.40;;;23.10;99.10;;;;;;5083757;28;20441;-73
2021/04/01 08:40:27;;;;;;;19.53;8.63;;;23.40;98.60;;;;;;5085268;28;20457;-72
2021/04/01 08:43:04;;;;;;;16.47;7.47;;;23.40;99.50;;;;;;5079958;28;20528;-73
2021/04/01 08:45:37;;;;;;;14.80;6.60;;;23.50;98.60;;;;;;5080820;28;20197;-72
2021/04/01 08:48:12;;;;;;;13.30;7.13;;;24.00;98.60;;;;;;5083555;28;20450;-72
2021/04/01 08:51:18;;;;;;;27.53;8.77;;;24.40;97.10;;;;;;5081053;28;20518;-72
2021/04/01 08:54:01;;;;;;;12.07;7.00;;;24.00;95.90;;;;;;5082562;28;20517;-73
2021/04/01 08:56:27;;;;;;;21.77;7.30;;;23.90;96.60;;;;;;5082345;28;20441;-74
2021/04/01 08:59:16;;;;;;;17.10;7.97;;;24.10;95.70;;;;;;5085046;28;20843;-73
2021/04/01 09:01:42;;;;;;;11.50;7.50;;;23.90;95.90;;;;;;5082149;28;20422;-73
2021/04/01 09:04:09;;;;;;;18.80;6.93;;;24.30;96.70;;;;;;5079426;28;20453;-73
2021/04/01 09:06:38;;;;;;;15.53;6.37;;;24.80;95.70;;;;;;5081597;28;20445;-72
2021/04/01 09:09:22;;;;;;;16.50;7.00;;;25.00;94.70;;;;;;5080372;28;20433;-74
2021/04/01 09:11:52;;;;;;;12.40;6.83;;;25.10;94.10;;;;;;5082947;28;20909;-73
2021/04/01 09:14:31;;;;;;;14.43;7.17;;;25.20;94.80;;;;;;5081753;28;20985;-72
2021/04/01 09:17:10;;;;;;;19.80;7.77;;;25.10;93.80;;;;;;5083044;28;20419;-74
2021/04/01 09:19:40;;;;;;;15.70;6.37;;;24.70;94.20;;;;;;5081903;28;20430;-73
2021/04/01 09:22:29;;;;;;;14.70;6.90;;;24.50;94.20;;;;;;5083364;28;20422;-72
2021/04/01 09:25:02;;;;;;;18.70;6.93;;;24.30;94.50;;;;;;5081087;28;20545;-72
2021/04/01 09:27:28;;;;;;;20.50;6.70;;;24.20;94.60;;;;;;5084174;28;20434;-73
2021/04/01 09:30:11;;;;;;;20.00;6.97;;;24.10;95.00;;;;;;5083204;28;20507;-73
2021/04/01 09:32:38;;;;;;;19.37;7.73;;;24.00;94.70;;;;;;5081801;28;20274;-72
2021/04/01 09:35:05;;;;;;;17.03;8.13;;;24.50;94.70;;;;;;5079752;28;20816;-72
2021/04/01 09:37:32;;;;;;;11.80;7.43;;;24.80;94.10;;;;;;5083403;28;20474;-72
2021/04/01 09:40:11;;;;;;;19.37;7.37;;;25.00;93.90;;;;;;5083703;28;20771;-73
2021/04/01 09:42:42;;;;;;;14.63;6.07;;;25.20;94.20;;;;;;5085702;28;20452;-73
2021/04/01 09:45:11;;;;;;;12.97;5.40;;;25.30;94.90;;;;;;5081168;28;20414;-73
2021/04/01 09:47:50;;;;;;;13.00;4.40;;;24.90;94.80;;;;;;5084497;28;20433;-73
2021/04/01 09:50:17;;;;;;;13.87;4.80;;;25.00;94.90;;;;;;5081867;28;20435;-72
2021/04/01 09:52:57;;;;;;;7.00;3.80;;;25.20;94.50;;;;;;5082037;28;20465;-74
2021/04/01 09:55:23;;;;;;;11.77;4.23;;;25.80;93.50;;;;;;5083131;28;20530;-74
2021/04/01 09:57:50;;;;;;;10.40;4.17;;;26.10;93.00;;;;;;5082959;28;20470;-74
2021/04/01 10:00:30;;;;;;;9.10;3.57;;;26.60;92.30;;;;;;5081136;28;20448;-73
2021/04/01 10:03:12;;;;;;;7.50;3.93;;;27.10;92.50;;;;;;5083348;28;20441;-72
2021/04/01 10:05:40;;;;;;;8.00;4.23;;;27.50;92.20;;;;;;5079276;28;20433;-73
2021/04/01 10:08:08;;;;;;;7.73;3.30;;;28.10;91.50;;;;;;5083210;28;20442;-75
2021/04/01 10:10:40;;;;;;;14.50;4.17;;;28.20;89.80;;;;;;5081585;28;20437;-73
2021/04/01 10:13:35;;;;;;;14.40;5.23;;;28.20;89.80;;;;;;5082320;28;21105;-73
2021/04/01 10:16:01;;;;;;;4.70;3.30;;;27.80;88.80;;;;;;5069191;28;20443;-73
2021/04/01 10:18:32;;;;;;;6.97;3.33;;;27.70;89.70;;;;;;5086458;28;20462;-71
2021/04/01 10:21:18;;;;;;;6.63;3.03;;;27.60;89.70;;;;;;5083238;28;20203;-73
2021/04/01 10:23:59;;;;;;;8.53;3.40;;;27.60;88.80;;;;;;5085858;28;20828;-73
2021/04/01 10:26:34;;;;;;;5.30;3.70;;;28.00;89.90;;;;;;5081880;28;20433;-73
2021/04/01 10:31:46;;;;;;;6.03;3.03;;;29.20;87.50;;;;;;5083832;28;20451;-72
2021/04/01 10:34:30;;;;;;;4.63;3.10;;;29.20;85.10;;;;;;5082691;28;20473;-72
2021/04/01 10:36:59;;;;;;;6.93;3.80;;;29.20;84.10;;;;;;5081215;28;20460;-73
2021/04/01 10:39:32;;;;;;;6.73;3.37;;;29.90;86.00;;;;;;5083528;28;20422;-72
2021/04/01 10:41:59;;;;;;;7.20;3.17;;;30.20;82.70;;;;;;5083709;28;20446;-73
2021/04/01 10:44:25;;;;;;;4.80;3.40;;;30.30;80.60;;;;;;5080826;28;20576;-72
2021/04/01 10:46:53;;;;;;;6.07;3.40;;;30.10;81.20;;;;;;5083012;28;20881;-71
2021/04/01 10:49:21;;;;;;;9.70;3.20;;;29.80;82.10;;;;;;5082027;28;20199;-72
2021/04/01 10:51:53;;;;;;;21.67;4.00;;;29.50;82.70;;;;;;5077345;28;20439;-71
2021/04/01 10:54:19;;;;;;;3.67;3.13;;;29.40;82.20;;;;;;5079979;28;20454;-72
2021/04/01 10:56:55;;;;;;;4.17;2.73;;;29.60;81.90;;;;;;5083758;28;20449;-72
2021/04/01 10:59:37;;;;;;;4.13;3.30;;;29.10;82.40;;;;;;5080066;28;20438;-72
2021/04/01 11:02:10;;;;;;;9.27;3.60;;;28.80;81.70;;;;;;5080611;28;20426;-72
2021/04/01 11:04:38;;;;;;;5.77;3.00;;;28.50;83.40;;;;;;5081781;28;21025;-72
2021/04/01 11:07:06;;;;;;;12.30;3.40;;;29.00;81.30;;;;;;5081134;28;20849;-72
2021/04/01 11:09:33;;;;;;;7.37;2.97;;;28.60;81.70;;;;;;5077097;28;20449;-71
2021/04/01 11:12:16;;;;;;;8.47;3.33;;;28.50;80.70;;;;;;5063802;28;20447;-69
2021/04/01 11:14:59;;;;;;;7.90;3.10;;;28.40;82.30;;;;;;5083041;28;20453;-71
2021/04/01 11:17:29;;;;;;;3.83;2.87;;;28.20;81.80;;;;;;5081275;28;20879;-71
2021/04/01 11:19:58;;;;;;;3.20;2.37;;;28.60;82.40;;;;;;5081755;28;20468;-71
2021/04/01 11:22:23;;;;;;;9.00;2.60;;;28.60;81.30;;;;;;5079444;28;20422;-72
2021/04/01 11:24:49;;;;;;;3.87;2.80;;;28.70;83.90;;;;;;5079661;28;20493;-72
2021/04/01 11:27:18;;;;;;;4.00;2.67;;;28.60;82.00;;;;;;5078620;28;20252;-71
2021/04/01 11:29:54;;;;;;;5.13;2.60;;;28.60;81.60;;;;;;5083235;28;20184;-70
2021/04/01 11:32:24;;;;;;;6.73;2.70;;;28.40;80.30;;;;;;5079434;28;20437;-70
2021/04/01 11:34:52;;;;;;;4.47;2.23;;;28.40;80.50;;;;;;5077001;28;20562;-69
2021/04/01 11:37:31;;;;;;;4.90;3.00;;;28.30;81.80;;;;;;5084313;28;20465;-70
2021/04/01 11:40:01;;;;;;;6.77;3.60;;;28.30;84.20;;;;;;5082859;28;20449;-70
2021/04/01 11:42:27;;;;;;;3.90;3.03;;;28.30;81.10;;;;;;5085298;28;20419;-69
2021/04/01 11:44:58;;;;;;;4.80;2.57;;;28.50;80.70;;;;;;5082738;28;20443;-70
2021/04/01 11:47:25;;;;;;;4.17;2.83;;;28.70;81.00;;;;;;5082107;28;20425;-69
2021/04/01 11:49:53;;;;;;;3.60;2.50;;;28.20;81.60;;;;;;5079896;28;20456;-70
2021/04/01 11:52:21;;;;;;;15.07;3.30;;;28.20;81.20;;;;;;5078040;28;20423;-70
2021/04/01 11:54:51;;;;;;;7.90;3.20;;;27.80;81.20;;;;;;5080900;28;20442;-71
2021/04/01 11:57:32;;;;;;;6.80;3.10;;;27.80;83.10;;;;;;5085870;28;20482;-70
2021/04/01 12:00:06;;;;;;;7.73;2.93;;;27.80;79.70;;;;;;5081879;28;20433;-71
2021/04/01 12:02:43;;;;;;;9.47;2.83;;;27.70;82.60;;;;;;5082326;28;20820;-69
2021/04/01 12:05:09;;;;;;;3.33;2.13;;;27.80;81.90;;;;;;5077415;28;20453;-70
2021/04/01 12:07:35;;;;;;;3.33;2.57;;;27.60;81.60;;;;;;5075811;28;20423;-70
2021/04/01 12:10:00;;;;;;;6.40;2.43;;;27.60;81.70;;;;;;5084672;28;20437;-71
2021/04/01 12:12:31;;;;;;;3.60;2.53;;;27.60;83.40;;;;;;5079014;28;20184;-70
2021/04/01 12:14:57;;;;;;;5.13;2.40;;;27.60;81.90;;;;;;5081729;28;20438;-70
2021/04/01 12:17:30;;;;;;;5.20;2.17;;;27.70;81.10;;;;;;5078995;28;20524;-71
2021/04/01 12:19:58;;;;;;;7.83;3.90;;;27.70;82.60;;;;;;5075706;28;20435;-70
2021/04/01 12:22:38;;;;;;;4.07;2.53;;;27.50;80.90;;;;;;5077200;28;20442;-71
2021/04/01 12:25:08;;;;;;;2.43;1.87;;;27.40;81.60;;;;;;5080438;28;20494;-70
2021/04/01 12:27:33;;;;;;;2.60;2.43;;;27.20;83.00;;;;;;5079534;28;20427;-70
2021/04/01 12:30:00;;;;;;;4.53;2.43;;;27.20;82.80;;;;;;5082601;28;20942;-70
2021/04/01 12:32:34;;;;;;;5.20;2.40;;;27.00;80.50;;;;;;5081215;28;20187;-70
2021/04/01 12:35:04;;;;;;;15.47;2.90;;;27.10;81.60;;;;;;5078504;28;20543;-70
2021/04/01 12:37:30;;;;;;;4.67;2.93;;;27.20;81.40;;;;;;5080601;28;20505;-70
2021/04/01 12:39:55;;;;;;;5.00;2.70;;;26.90;80.40;;;;;;5077983;28;20443;-70
2021/04/01 12:42:32;;;;;;;6.73;2.63;;;27.00;81.10;;;;;;5084625;28;20246;-71
2021/04/01 12:44:58;;;;;;;2.83;2.30;;;26.70;79.90;;;;;;5080659;28;20187;-70
2021/04/01 12:47:23;;;;;;;6.27;2.00;;;26.70;80.60;;;;;;5083800;28;20434;-71
2021/04/01 12:49:49;;;;;;;5.40;2.53;;;26.60;80.60;;;;;;5078537;28;20294;-70
2021/04/01 12:52:15;;;;;;;3.57;2.40;;;26.30;78.80;;;;;;5080844;28;20192;-70
2021/04/01 12:54:44;;;;;;;4.07;2.70;;;26.30;79.80;;;;;;5083156;28;20478;-69
2021/04/01 12:57:13;;;;;;;6.63;2.43;;;26.30;81.40;;;;;;5079677;28;20249;-70
2021/04/01 12:59:51;;;;;;;9.53;2.57;;;26.10;80.10;;;;;;5079607;28;20943;-70
2021/04/01 13:02:23;;;;;;;5.30;2.33;;;26.00;79.30;;;;;;5080576;28;20430;-69
2021/04/01 13:04:59;;;;;;;5.20;2.60;;;25.90;78.40;;;;;;5082979;28;20521;-69
2021/04/01 13:07:33;;;;;;;9.50;3.07;;;26.10;76.80;;;;;;5081866;28;20491;-70
2021/04/01 13:10:43;;;;;;;3.43;2.40;;;26.00;78.20;;;;;;5083231;28;20815;-69
2021/04/01 13:12:44;;;;;;;3.87;2.80;;;26.00;77.90;;;;;;5077313;28;20596;-71
2021/04/01 13:15:10;;;;;;;7.10;2.90;;;26.00;79.70;;;;;;5079309;28;20931;-70
2021/04/01 13:17:35;;;;;;;3.30;3.00;;;25.50;80.50;;;;;;5083681;28;20208;-70
2021/04/01 13:20:01;;;;;;;5.40;2.37;;;25.10;81.00;;;;;;5081841;28;20946;-70
2021/04/01 13:22:32;;;;;;;8.23;3.00;;;25.10;81.70;;;;;;5083667;28;20184;-71
2021/04/01 13:27:27;;;;;;;5.57;3.10;;;25.40;83.00;;;;;;5086213;28;20419;-70
2021/04/01 13:29:55;;;;;;;6.43;2.73;;;25.30;83.70;;;;;;5083120;28;20944;-70
2021/04/01 13:32:34;;;;;;;5.63;3.20;;;25.10;82.70;;;;;;5082994;28;20418;-71
2021/04/01 13:35:09;;;;;;;5.50;2.77;;;25.00;82.80;;;;;;5082917;28;20438;-70
2021/04/01 13:37:48;;;;;;;3.50;3.20;;;24.90;83.70;;;;;;5087135;28;20465;-70
2021/04/01 13:40:18;;;;;;;6.33;3.10;;;24.90;82.00;;;;;;5083324;28;20421;-70
2021/04/01 13:42:53;;;;;;;5.00;2.50;;;25.00;83.20;;;;;;5084971;28;20537;-69
2021/04/01 13:45:24;;;;;;;3.33;2.53;;;25.00;83.00;;;;;;5083517;28;20524;-69
2021/04/01 13:48:05;;;;;;;6.80;3.10;;;24.90;82.80;;;;;;5081774;28;20809;-70
2021/04/01 13:50:35;;;;;;;5.50;3.10;;;24.70;83.20;;;;;;5084861;28;20464;-69
2021/04/01 13:53:14;;;;;;;10.00;4.23;;;24.50;80.80;;;;;;5079778;28;20492;-70
2021/04/01 13:55:43;;;;;;;7.67;3.17;;;24.50;82.90;;;;;;5081989;28;20879;-70
2021/04/01 14:03:55;;;;;;;6.03;3.60;;;24.70;84.00;;;;;;5081128;28;20443;-68
2021/04/01 14:09:19;;;;;;;10.03;3.23;;;24.80;82.90;;;;;;5083993;28;20869;-70
2021/04/01 14:11:45;;;;;;;9.80;5.33;;;24.80;84.80;;;;;;5084157;28;20430;-70
2021/04/01 14:14:11;;;;;;;3.50;3.20;;;24.60;83.20;;;;;;5082622;28;20820;-70
2021/04/01 14:16:38;;;;;;;10.30;4.27;;;24.40;82.40;;;;;;5080673;28;20191;-70
2021/04/01 14:19:04;;;;;;;5.87;4.40;;;24.10;82.00;;;;;;5082537;28;20579;-69
2021/04/01 14:21:32;;;;;;;7.77;3.87;;;24.00;84.40;;;;;;5079944;28;20462;-70
2021/04/01 14:23:59;;;;;;;5.97;4.00;;;24.00;83.70;;;;;;5081338;28;20482;-70
2021/04/01 14:28:51;;;;;;;12.17;4.70;;;24.10;83.70;;;;;;5085103;28;20422;-72
2021/04/01 14:31:17;;;;;;;6.50;4.30;;;24.10;82.20;;;;;;5080421;28;20223;-70
2021/04/01 14:33:45;;;;;;;10.67;4.07;;;24.20;82.90;;;;;;5083784;28;20492;-71